Share

Glenwood, MN

KMGK (Magic 107.1) FM (KMNGLENW1) Elev 1168 ft | 45.65 °N, 95.39 °W | Change Station

Current weather conditions updated 3 seconds ago

Scattered Clouds
Scattered Clouds
73.6 °F
Feels Like 76 °F
N
3.0
Wind Variable Wind from WSW
Gusts 6.0 mph
Sunrise 6:27 AM
Sunset 8:14 PM
Moon Waning Gibbous

Tomorrow is forecast to be Much Cooler than today.

Pressure 29.96 in
Visibility 10.0 miles
Clouds Scattered Clouds 10000 ft
Heat Index 76 °F
Dew Point 38 °F
Humidity 28%
Rainfall 0.00 in
Snow Depth Not available.
UV 3 out of 16
Pollen 10.30 out of 12
Air Quality Not available.
Flu Activity Sporadic
METAR KGHW 202213Z AUTO 16006KT 10SM SCT100 23/M01 A2996 RMK AO2

More Conditions Fewer Conditions

Pressure 29.96 in
Visibility 10.0 miles
Clouds Scattered Clouds 10000 ft
Heat Index 76 °F
Dew Point 38 °F
Humidity 28%
Rainfall 0.00 in
Snow Depth Not available.
UV 3 out of 16
Pollen 10.30 out of 12
Air Quality Not available.
Flu Activity Sporadic
METAR KGHW 202213Z AUTO 16006KT 10SM SCT100 23/M01 A2996 RMK AO2

More Conditions Fewer Conditions

10-Day Weather Forecast

Almanac

Astronomy

Apr. 20, 2014 Rise Set
Actual Time 6:27 AM CDT 8:14 PM CDT
Civil Twilight 5:55 AM CDT 8:46 PM CDT
Nautical Twilight 5:17 AM CDT 9:24 PM CDT
Astronomical Twilight 4:35 AM CDT 10:07 PM CDT
Moon 1:01 AM CDT 10:42 AM CDT
Length of Visible Light 14h 50m
Length of Day
13h 47m
Tomorrow will be 2m 59s longer.
Waning Gibbous, 66% of the Moon is Illuminated
Today
Waning Gibbous
Apr 22
Last Quarter
Apr 29
New
May 6
First Quarter
May 14
Full

Today's Extremes

State Highs State Lows

Community

  • spring skiing mount Baker WA
    spring skiing mount Baker WA
  • Morning Sun
    Morning Sun
  • after rain
    after rain
  • Columbine
    Columbine
  • Easter Sunrise
    Easter Sunrise

WunderPhotos

Upload Photos

1,703,414 photos uploaded!

WunderBlogs® & News

Nearby

Snow Depth

Station Depth Elevation
No new snow has been reported.

Coastal Water Temperatures

Place Temperature
No Stations Reporting

Earthquake Activity

City Distance Mag. Time & Date
No recent earthquake activity has been reported nearby.
Minimum magnitude displayed is 2.5.

Nearby Weather Stations

Station Location Temp. Heat Index Dew Point Humidity Wind Precip. Elev Updated Type
KMGK (Magic 107.1) FM, Glenwood, MN 73.6 °F 76 °F 38 °F 28% WSW  at  3.0 mph 0.00 in / hr 1168 ft 5:25 PM CDT Rapid Fire
Sauk Centre, Sauk Centre, MN 75.4 °F 76 °F 33 °F 21% South  at  3.1 mph 0.00 in / hr 1253 ft 5:25 PM CDT Rapid Fire

Show More Stations Show Fewer Stations

What do you think?

We're not finished. Please let us know what you like, what you don't like, and what you are still missing.